createdAt,value
2018-04-14T00:00:40.327Z,102541.73
2018-04-14T00:03:12.292Z,102546.91
2018-04-14T00:05:44.447Z,102540.49
2018-04-14T00:08:16.487Z,102538.69
2018-04-14T00:10:50.251Z,102536.13
2018-04-14T00:13:22.751Z,102540.72
2018-04-14T00:17:03.104Z,102530.89
2018-04-14T00:19:35.227Z,102529.13
2018-04-14T00:22:07.293Z,102533.78
2018-04-14T00:24:39.295Z,102531.48
2018-04-14T00:27:11.253Z,102533.58
2018-04-14T00:29:43.255Z,102525.52
2018-04-14T00:32:15.264Z,102532.41
2018-04-14T00:34:48.489Z,102526.47
2018-04-14T00:39:20.928Z,102518.66
2018-04-14T00:41:53.281Z,102522.92
2018-04-14T00:44:26.265Z,102522.98
2018-04-14T00:46:58.295Z,102531.20
2018-04-14T00:49:30.454Z,102526.59
2018-04-14T00:52:01.478Z,102526.61
2018-04-14T00:54:33.594Z,102531.55
2018-04-14T00:57:05.592Z,102523.82
2018-04-14T00:59:36.461Z,102524.06
2018-04-14T01:02:09.114Z,102527.13
2018-04-14T01:04:41.243Z,102526.02
2018-04-14T01:07:13.571Z,102523.34
2018-04-14T01:09:44.097Z,102526.54
2018-04-14T01:12:16.495Z,102529.62
2018-04-14T01:14:48.492Z,102521.31
2018-04-14T01:17:20.490Z,102526.13
2018-04-14T01:19:53.255Z,102527.59
2018-04-14T01:22:26.311Z,102523.25
2018-04-14T01:24:58.539Z,102523.08
2018-04-14T01:27:31.249Z,102518.02
2018-04-14T01:30:03.557Z,102520.57
2018-04-14T01:32:35.447Z,102515.64
2018-04-14T01:35:07.565Z,102521.81
2018-04-14T01:39:04.386Z,102519.72
2018-04-14T01:41:36.239Z,102519.52
2018-04-14T01:44:09.508Z,102524.55
2018-04-14T01:46:41.596Z,102518.34
2018-04-14T01:49:12.500Z,102523.70
2018-04-14T01:51:44.310Z,102522.91
2018-04-14T01:54:16.251Z,102525.67
2018-04-14T01:56:48.498Z,102522.14
2018-04-14T01:59:20.293Z,102525.39
2018-04-14T02:01:52.506Z,102528.37
2018-04-14T02:04:25.343Z,102530.40
2018-04-14T02:06:57.269Z,102532.03
2018-04-14T02:11:55.272Z,102527.89
2018-04-14T02:14:27.266Z,102527.44
2018-04-14T02:16:59.486Z,102529.69
2018-04-14T02:19:31.488Z,102528.33
2018-04-14T02:22:04.484Z,102534.38
2018-04-14T02:24:37.897Z,102530.77
2018-04-14T02:27:10.265Z,102531.58
2018-04-14T02:29:42.250Z,102533.88
2018-04-14T02:32:15.035Z,102533.05
2018-04-14T02:34:47.475Z,102533.08
2018-04-14T02:37:20.929Z,102532.34
2018-04-14T02:39:53.237Z,102533.57
2018-04-14T02:42:25.479Z,102528.00
2018-04-14T02:44:57.471Z,102533.94
2018-04-14T02:47:29.470Z,102537.06
2018-04-14T02:50:01.510Z,102539.28
2018-04-14T02:52:33.435Z,102542.73
2018-04-14T02:55:05.576Z,102547.72
2018-04-14T02:59:21.304Z,102542.72
2018-04-14T03:01:53.229Z,102547.55
2018-04-14T03:04:25.164Z,102546.92
2018-04-14T03:06:58.250Z,102551.56
2018-04-14T03:09:30.492Z,102552.80
2018-04-14T03:12:02.499Z,102551.17
2018-04-14T03:17:14.705Z,102553.97
2018-04-14T03:19:46.600Z,102551.83
2018-04-14T03:22:20.388Z,102558.31
2018-04-14T03:24:53.593Z,102563.93
2018-04-14T03:27:24.502Z,102564.06
2018-04-14T03:29:57.078Z,102567.20
2018-04-14T03:32:29.488Z,102572.95
2018-04-14T03:35:03.304Z,102561.78
2018-04-14T03:37:36.632Z,102569.68
2018-04-14T03:40:07.498Z,102573.00
2018-04-14T03:42:39.483Z,102576.03
2018-04-14T03:45:12.318Z,102572.22
2018-04-14T03:47:44.312Z,102571.08
2018-04-14T03:50:16.230Z,102574.77
2018-04-14T03:52:48.300Z,102576.98
2018-04-14T03:55:20.116Z,102581.77
2018-04-14T03:59:28.497Z,102587.00
2018-04-14T04:02:00.271Z,102589.48
2018-04-14T04:04:32.336Z,102596.59
2018-04-14T04:07:04.228Z,102597.33
2018-04-14T04:09:37.278Z,102597.33
2018-04-14T04:12:09.237Z,102599.36
2018-04-14T04:14:41.285Z,102601.70
2018-04-14T04:17:14.113Z,102601.05
2018-04-14T04:19:57.706Z,102604.16
2018-04-14T04:22:42.233Z,102600.91
2018-04-14T04:25:27.250Z,102611.12
2018-04-14T04:27:59.492Z,102608.55
2018-04-14T04:30:31.339Z,102614.91
2018-04-14T04:33:05.275Z,102620.50
2018-04-14T04:35:37.613Z,102611.00
2018-04-14T04:38:09.108Z,102615.69
2018-04-14T04:40:41.495Z,102617.86
2018-04-14T04:43:14.497Z,102624.44
2018-04-14T04:45:47.515Z,102622.27
2018-04-14T04:48:19.544Z,102626.61
2018-04-14T04:50:51.504Z,102620.23
2018-04-14T04:53:23.623Z,102624.40
2018-04-14T04:55:55.582Z,102623.83
2018-04-14T04:58:28.303Z,102636.73
2018-04-14T05:01:01.347Z,102639.61
2018-04-14T05:06:04.594Z,102637.86
2018-04-14T05:08:35.505Z,102633.86
2018-04-14T05:11:07.515Z,102637.38
2018-04-14T05:13:39.603Z,102639.61
2018-04-14T05:16:10.519Z,102638.73
2018-04-14T05:18:42.512Z,102631.22
2018-04-14T05:21:14.509Z,102631.95
2018-04-14T05:23:46.538Z,102635.06
2018-04-14T05:26:18.511Z,102634.78
2018-04-14T05:28:50.500Z,102630.55
2018-04-14T05:31:23.623Z,102632.31
2018-04-14T05:33:54.518Z,102631.46
2018-04-14T05:38:45.602Z,102634.14
2018-04-14T05:41:17.099Z,102619.38
2018-04-14T05:43:49.507Z,102621.11
2018-04-14T05:46:21.383Z,102622.33
2018-04-14T05:48:53.485Z,102626.39
2018-04-14T05:54:13.889Z,102622.67
2018-04-14T05:56:46.514Z,102617.52
2018-04-14T05:59:19.403Z,102619.08
2018-04-14T06:01:51.487Z,102610.93
2018-04-14T06:04:24.552Z,102617.08
2018-04-14T06:06:56.484Z,102612.77
2018-04-14T06:11:40.566Z,102612.85
2018-04-14T06:14:13.105Z,102615.91
2018-04-14T06:16:45.247Z,102608.88
2018-04-14T06:19:17.328Z,102615.59
2018-04-14T06:23:05.226Z,102609.93
2018-04-14T06:25:37.283Z,102611.34
2018-04-14T06:28:09.972Z,102609.80
2018-04-14T06:30:42.602Z,102610.86
2018-04-14T06:33:14.493Z,102606.56
2018-04-14T06:39:36.499Z,102608.63
2018-04-14T06:42:09.245Z,102608.79
2018-04-14T06:44:41.589Z,102611.84
2018-04-14T06:47:15.178Z,102613.13
2018-04-14T06:49:49.267Z,102613.97
2018-04-14T06:52:22.238Z,102612.09
2018-04-14T06:54:55.481Z,102611.61
2018-04-14T06:57:28.223Z,102614.08
2018-04-14T07:00:01.560Z,102607.44
2018-04-14T07:02:34.596Z,102608.22
2018-04-14T07:05:08.090Z,102607.39
2018-04-14T07:07:42.245Z,102616.05
2018-04-14T07:10:14.984Z,102608.83
2018-04-14T07:12:48.226Z,102604.29
2018-04-14T07:15:21.476Z,102604.27
2018-04-14T07:17:53.952Z,102608.70
2018-04-14T07:20:27.328Z,102606.63
2018-04-14T07:23:00.525Z,102608.14
2018-04-14T07:25:33.260Z,102613.09
2018-04-14T07:28:06.488Z,102599.37
2018-04-14T07:30:40.263Z,102599.55
2018-04-14T07:33:13.498Z,102597.62
2018-04-14T07:35:46.513Z,102603.61
2018-04-14T07:38:19.498Z,102600.69
2018-04-14T07:40:54.265Z,102599.15
2018-04-14T07:43:27.497Z,102596.37
2018-04-14T07:46:00.501Z,102590.81
2018-04-14T07:48:33.484Z,102587.89
2018-04-14T07:51:06.478Z,102579.46
2018-04-14T07:53:39.664Z,102583.44
2018-04-14T07:56:13.241Z,102581.92
2018-04-14T07:58:46.265Z,102583.64
2018-04-14T08:01:18.606Z,102580.98
2018-04-14T08:03:50.112Z,102571.41
2018-04-14T08:06:23.507Z,102578.66
2018-04-14T08:08:57.573Z,102571.42
2018-04-14T08:11:30.589Z,102576.40
2018-04-14T08:14:02.552Z,102573.45
2018-04-14T08:16:34.499Z,102569.69
2018-04-14T08:19:07.536Z,102572.16
2018-04-14T08:21:39.522Z,102569.94
2018-04-14T08:24:13.277Z,102576.47
2018-04-14T08:26:46.584Z,102578.52
2018-04-14T08:29:20.258Z,102571.59
2018-04-14T08:31:53.265Z,102571.35
2018-04-14T08:34:25.618Z,102567.70
2018-04-14T08:36:59.421Z,102562.83
2018-04-14T08:39:32.292Z,102569.63
2018-04-14T08:42:06.740Z,102569.98
2018-04-14T08:44:39.593Z,102570.66
2018-04-14T08:47:11.501Z,102566.39
2018-04-14T08:49:44.267Z,102568.09
2018-04-14T08:52:17.240Z,102565.47
2018-04-14T08:54:50.227Z,102554.47
2018-04-14T08:57:23.243Z,102551.68
2018-04-14T08:59:56.246Z,102550.53
2018-04-14T09:02:29.224Z,102554.05
2018-04-14T09:05:02.803Z,102540.83
2018-04-14T09:07:36.589Z,102543.34
2018-04-14T09:10:08.429Z,102533.20
2018-04-14T09:12:41.257Z,102526.47
2018-04-14T09:17:47.578Z,102516.94
2018-04-14T09:20:20.584Z,102510.56
2018-04-14T09:22:54.253Z,102510.75
2018-04-14T09:25:27.261Z,102498.97
2018-04-14T09:28:00.118Z,102499.68
2018-04-14T09:30:33.597Z,102502.00
2018-04-14T09:33:05.512Z,102498.17
2018-04-14T09:35:38.568Z,102494.45
2018-04-14T09:38:10.493Z,102486.08
2018-04-14T09:40:43.276Z,102489.01
2018-04-14T09:43:15.593Z,102483.01
2018-04-14T09:45:47.570Z,102485.31
2018-04-14T09:48:19.100Z,102486.73
2018-04-14T09:50:52.274Z,102483.48
2018-04-14T09:53:26.121Z,102486.97
2018-04-14T09:55:59.580Z,102491.38
2018-04-14T09:58:33.090Z,102492.02
2018-04-14T10:03:58.702Z,102495.00
2018-04-14T10:06:32.230Z,102487.23
2018-04-14T10:09:05.542Z,102491.92
2018-04-14T10:11:38.070Z,102495.23
2018-04-14T10:14:11.604Z,102489.97
2018-04-14T10:16:45.299Z,102494.02
2018-04-14T10:19:19.271Z,102487.96
2018-04-14T10:21:52.913Z,102489.78
2018-04-14T10:24:24.547Z,102489.05
2018-04-14T10:26:57.283Z,102492.02
2018-04-14T10:29:32.121Z,102482.66
2018-04-14T10:32:05.273Z,102483.46
2018-04-14T10:34:39.107Z,102482.70
2018-04-14T10:37:12.531Z,102484.55
2018-04-14T10:39:46.741Z,102486.04
2018-04-14T10:42:19.570Z,102489.22
2018-04-14T10:44:52.528Z,102482.01
2018-04-14T10:47:26.286Z,102482.63
2018-04-14T10:50:00.244Z,102487.86
2018-04-14T10:52:33.521Z,102489.38
2018-04-14T10:55:06.541Z,102487.59
2018-04-14T10:57:40.511Z,102485.34
2018-04-14T11:00:14.322Z,102477.28
2018-04-14T11:02:47.577Z,102481.45
2018-04-14T11:05:19.577Z,102474.41
2018-04-14T11:10:25.748Z,102476.83
2018-04-14T11:13:00.350Z,102477.19
2018-04-14T11:15:33.267Z,102470.62
2018-04-14T11:18:06.511Z,102472.72
2018-04-14T11:20:39.517Z,102472.97
2018-04-14T11:23:12.279Z,102477.05
2018-04-14T11:25:45.499Z,102470.21
2018-04-14T11:28:19.888Z,102467.30
2018-04-14T11:30:53.257Z,102468.28
2018-04-14T11:33:26.503Z,102456.98
2018-04-14T11:35:59.839Z,102458.46
2018-04-14T11:38:33.890Z,102456.00
2018-04-14T11:41:07.549Z,102457.58
2018-04-14T11:43:40.530Z,102459.14
2018-04-14T11:46:14.550Z,102455.73
2018-04-14T11:48:46.782Z,102456.81
2018-04-14T11:51:20.621Z,102455.00
2018-04-14T11:53:52.880Z,102454.84
2018-04-14T11:56:26.678Z,102452.84
2018-04-14T11:59:00.615Z,102448.84
2018-04-14T12:01:34.368Z,102454.73
2018-04-14T12:04:08.293Z,102454.64
2018-04-14T12:06:42.502Z,102456.83
2018-04-14T12:09:15.587Z,102453.33
2018-04-14T12:11:49.712Z,102451.84
2018-04-14T12:14:22.520Z,102448.22
2018-04-14T12:16:55.716Z,102451.04
2018-04-14T12:19:28.708Z,102451.77
2018-04-14T12:22:01.616Z,102456.87
2018-04-14T12:24:34.963Z,102455.78
2018-04-14T12:27:08.699Z,102458.75
2018-04-14T12:29:42.702Z,102455.78
2018-04-14T12:32:15.224Z,102456.86
2018-04-14T12:34:48.628Z,102458.39
2018-04-14T12:37:20.554Z,102457.63
2018-04-14T12:39:52.555Z,102463.38
2018-04-14T12:42:24.887Z,102461.35
2018-04-14T12:44:58.539Z,102465.25
2018-04-14T12:47:30.552Z,102467.80
2018-04-14T12:50:02.121Z,102468.32
2018-04-14T12:52:35.542Z,102467.03
2018-04-14T12:55:07.387Z,102471.17
2018-04-14T12:57:40.540Z,102470.66
2018-04-14T13:00:14.271Z,102475.16
2018-04-14T13:02:47.680Z,102477.59
2018-04-14T13:05:20.588Z,102467.45
2018-04-14T13:07:54.271Z,102470.55
2018-04-14T13:10:27.752Z,102466.36
2018-04-14T13:12:59.400Z,102465.77
2018-04-14T13:15:33.231Z,102467.22
2018-04-14T13:18:07.402Z,102466.64
2018-04-14T13:20:41.283Z,102465.55
2018-04-14T13:23:15.260Z,102463.45
2018-04-14T13:25:47.451Z,102467.38
2018-04-14T13:28:21.355Z,102470.48
2018-04-14T13:30:54.571Z,102466.22
2018-04-14T13:33:27.592Z,102464.55
2018-04-14T13:36:01.109Z,102467.25
2018-04-14T13:38:34.259Z,102465.93
2018-04-14T13:41:06.394Z,102462.41
2018-04-14T13:43:39.549Z,102461.14
2018-04-14T13:46:41.623Z,102454.71
2018-04-14T13:49:13.538Z,102456.22
2018-04-14T13:51:45.217Z,102457.52
2018-04-14T13:54:18.565Z,102458.75
2018-04-14T13:56:50.227Z,102461.95
2018-04-14T13:59:22.770Z,102464.83
2018-04-14T14:01:56.275Z,102466.27
2018-04-14T14:04:29.640Z,102457.47
2018-04-14T14:07:01.420Z,102463.52
2018-04-14T14:09:35.286Z,102467.35
2018-04-14T14:12:08.577Z,102472.94
2018-04-14T14:14:42.466Z,102468.09
2018-04-14T14:17:15.297Z,102476.69
2018-04-14T14:19:48.614Z,102484.60
2018-04-14T14:22:21.558Z,102484.43
2018-04-14T14:24:55.252Z,102487.36
2018-04-14T14:27:28.285Z,102485.66
2018-04-14T14:30:01.271Z,102489.02
2018-04-14T14:32:35.112Z,102484.41
2018-04-14T14:35:08.250Z,102482.68
2018-04-14T14:37:41.241Z,102477.81
2018-04-14T14:40:13.105Z,102479.67
2018-04-14T14:42:46.611Z,102475.86
2018-04-14T14:45:18.953Z,102481.22
2018-04-14T14:47:52.286Z,102480.79
2018-04-14T14:50:31.287Z,102478.90
2018-04-14T14:53:04.588Z,102478.61
2018-04-14T14:55:37.745Z,102474.41
2018-04-14T14:58:09.293Z,102472.31
2018-04-14T15:00:44.155Z,102469.19
2018-04-14T15:03:17.090Z,102473.31
2018-04-14T15:05:50.374Z,102478.36
2018-04-14T15:08:23.395Z,102473.83
2018-04-14T15:10:57.247Z,102471.67
2018-04-14T15:13:30.554Z,102474.26
2018-04-14T15:16:03.577Z,102472.56
2018-04-14T15:18:37.498Z,102465.54
2018-04-14T15:21:10.496Z,102469.58
2018-04-14T15:23:44.230Z,102469.90
2018-04-14T15:26:17.253Z,102464.66
2018-04-14T15:28:50.275Z,102462.97
2018-04-14T15:31:23.279Z,102463.77
2018-04-14T15:33:57.045Z,102470.55
2018-04-14T15:36:30.845Z,102464.37
2018-04-14T15:39:03.494Z,102459.12
2018-04-14T15:41:36.582Z,102458.66
2018-04-14T15:44:08.577Z,102456.83
2018-04-14T15:46:40.375Z,102461.84
2018-04-14T15:49:13.521Z,102460.65
2018-04-14T15:51:46.572Z,102460.87
2018-04-14T15:54:20.893Z,102466.12
2018-04-14T15:56:55.578Z,102462.27
2018-04-14T15:59:27.069Z,102464.58
2018-04-14T16:03:02.493Z,102460.05
2018-04-14T16:05:36.128Z,102456.06
2018-04-14T16:08:09.229Z,102452.10
2018-04-14T16:10:42.286Z,102447.07
2018-04-14T16:13:15.243Z,102441.86
2018-04-14T16:15:49.243Z,102436.25
2018-04-14T16:18:22.272Z,102436.40
2018-04-14T16:20:56.218Z,102437.75
2018-04-14T16:23:29.595Z,102435.27
2018-04-14T16:26:01.670Z,102435.12
2018-04-14T16:28:34.599Z,102435.58
2018-04-14T16:31:06.501Z,102440.82
2018-04-14T16:33:39.560Z,102444.86
2018-04-14T16:36:11.507Z,102442.67
2018-04-14T16:38:45.943Z,102432.23
2018-04-14T16:41:19.256Z,102429.55
2018-04-14T16:43:52.503Z,102425.66
2018-04-14T16:46:25.811Z,102424.03
2018-04-14T16:48:59.063Z,102424.90
2018-04-14T16:51:32.530Z,102425.06
2018-04-14T16:54:05.520Z,102426.75
2018-04-14T16:56:39.506Z,102428.03
2018-04-14T16:59:12.548Z,102429.02
2018-04-14T17:01:46.618Z,102428.89
2018-04-14T17:04:20.000Z,102429.17
2018-04-14T17:06:54.275Z,102429.95
2018-04-14T17:09:28.255Z,102427.89
2018-04-14T17:12:01.576Z,102430.59
2018-04-14T17:14:34.299Z,102431.67
2018-04-14T17:17:07.601Z,102432.72
2018-04-14T17:19:39.504Z,102420.39
2018-04-14T17:22:12.599Z,102419.08
2018-04-14T17:24:45.986Z,102409.80
2018-04-14T17:27:18.591Z,102405.36
2018-04-14T17:29:50.125Z,102410.05
2018-04-14T17:32:23.921Z,102402.86
2018-04-14T17:34:57.917Z,102398.31
2018-04-14T17:37:31.574Z,102393.34
2018-04-14T17:40:04.013Z,102394.97
2018-04-14T17:42:37.273Z,102397.97
2018-04-14T17:45:10.290Z,102393.98
2018-04-14T17:47:43.575Z,102395.84
2018-04-14T17:50:15.506Z,102385.11
2018-04-14T17:52:48.589Z,102383.92
2018-04-14T17:55:20.120Z,102386.66
2018-04-14T17:57:54.276Z,102378.77
2018-04-14T18:00:27.979Z,102380.45
2018-04-14T18:03:02.268Z,102378.99
2018-04-14T18:05:35.799Z,102370.00
2018-04-14T18:08:08.575Z,102365.91
2018-04-14T18:10:40.544Z,102363.11
2018-04-14T18:13:12.338Z,102371.34
2018-04-14T18:15:46.520Z,102374.42
2018-04-14T18:18:19.573Z,102379.26
2018-04-14T18:20:51.485Z,102374.34
2018-04-14T18:23:24.555Z,102375.50
2018-04-14T18:25:58.251Z,102367.53
2018-04-14T18:28:31.508Z,102368.69
2018-04-14T18:31:05.077Z,102363.75
2018-04-14T18:33:38.555Z,102358.66
2018-04-14T18:36:11.535Z,102356.84
2018-04-14T18:42:07.694Z,102348.27
2018-04-14T18:44:41.254Z,102346.38
2018-04-14T18:47:15.595Z,102342.48
2018-04-14T18:49:47.405Z,102338.16
2018-04-14T18:52:20.484Z,102336.20
2018-04-14T18:54:53.244Z,102339.13
2018-04-14T18:57:26.419Z,102328.03
2018-04-14T19:00:00.556Z,102324.52
2018-04-14T19:02:34.255Z,102327.61
2018-04-14T19:05:08.219Z,102323.11
2018-04-14T19:07:41.505Z,102318.73
2018-04-14T19:10:14.606Z,102314.66
2018-04-14T19:12:46.088Z,102306.15
2018-04-14T19:15:19.551Z,102305.34
2018-04-14T19:18:32.484Z,102300.02
2018-04-14T19:21:06.483Z,102291.94
2018-04-14T19:23:39.545Z,102285.59
2018-04-14T19:26:13.260Z,102278.05
2018-04-14T19:28:47.116Z,102271.02
2018-04-14T19:31:20.732Z,102269.77
2018-04-14T19:33:53.511Z,102269.33
2018-04-14T19:36:25.553Z,102263.97
2018-04-14T19:38:58.548Z,102255.98
2018-04-14T19:41:30.552Z,102256.77
2018-04-14T19:44:04.269Z,102255.53
2018-04-14T19:46:38.279Z,102247.92
2018-04-14T19:49:11.551Z,102243.88
2018-04-14T19:51:43.846Z,102244.31
2018-04-14T19:54:16.960Z,102239.17
2018-04-14T19:56:50.601Z,102231.09
2018-04-14T19:59:22.532Z,102229.59
2018-04-14T20:01:56.073Z,102222.09
2018-04-14T20:04:29.492Z,102225.53
2018-04-14T20:07:02.666Z,102220.63
2018-04-14T20:09:36.359Z,102216.59
2018-04-14T20:12:27.218Z,102205.22
2018-04-14T20:28:07.333Z,102198.84
2018-04-14T20:54:22.279Z,102159.53
2018-04-14T20:56:55.549Z,102156.00
2018-04-14T20:59:28.296Z,102151.74
2018-04-14T21:02:01.548Z,102139.30
2018-04-14T21:04:35.528Z,102131.06
2018-04-14T21:07:08.552Z,102129.45
2018-04-14T21:09:41.345Z,102114.66
2018-04-14T21:12:14.509Z,102121.63
2018-04-14T21:14:47.604Z,102111.89
2018-04-14T21:17:20.112Z,102117.61
2018-04-14T21:19:53.591Z,102119.92
2018-04-14T21:22:25.534Z,102110.34
2018-04-14T21:24:59.258Z,102103.62
2018-04-14T21:27:32.129Z,102102.94
2018-04-14T21:30:05.515Z,102109.42
2018-04-14T21:32:38.252Z,102090.38
2018-04-14T21:35:11.604Z,102086.51
2018-04-14T21:37:44.009Z,102080.37
2018-04-14T21:40:17.726Z,102075.02
2018-04-14T21:42:50.567Z,102067.91
2018-04-14T21:45:23.540Z,102071.28
2018-04-14T21:47:55.527Z,102063.50
2018-04-14T21:50:28.672Z,102063.44
2018-04-14T21:53:02.981Z,102055.74
2018-04-14T21:55:36.524Z,102052.92
2018-04-14T21:59:35.729Z,102042.84
2018-04-14T22:02:08.627Z,102046.52
2018-04-14T22:04:41.608Z,102042.33
2018-04-14T22:07:13.154Z,102039.31
2018-04-14T22:09:46.614Z,102036.09
2018-04-14T22:12:18.553Z,102035.53
2018-04-14T22:14:51.633Z,102027.01
2018-04-14T22:17:23.540Z,102017.98
2018-04-14T22:19:56.558Z,102020.75
2018-04-14T22:22:29.533Z,102012.25
2018-04-14T22:25:02.628Z,102008.23
2018-04-14T22:27:34.530Z,101997.03
2018-04-14T22:30:07.662Z,101992.55
2018-04-14T22:32:39.585Z,101992.35
2018-04-14T22:35:12.085Z,101990.42
2018-04-14T22:37:46.606Z,101995.41
2018-04-14T22:40:20.264Z,101979.22
2018-04-14T22:42:54.290Z,101966.63
2018-04-14T22:48:14.345Z,101956.05
2018-04-14T22:50:47.538Z,101953.31
2018-04-14T22:53:21.066Z,101946.99
2018-04-14T22:55:54.316Z,101938.58
2018-04-14T22:58:27.590Z,101924.95
2018-04-14T23:01:00.329Z,101928.98
2018-04-14T23:04:33.305Z,101920.77
2018-04-14T23:07:06.531Z,101917.23
2018-04-14T23:09:39.616Z,101909.52
2018-04-14T23:12:11.574Z,101911.05
2018-04-14T23:14:43.539Z,101912.65
2018-04-14T23:17:17.160Z,101911.81
2018-04-14T23:19:50.320Z,101907.52
2018-04-14T23:22:23.635Z,101917.11
2018-04-14T23:24:55.153Z,101908.14
2018-04-14T23:27:28.535Z,101901.76
2018-04-14T23:30:01.579Z,101899.77
2018-04-14T23:32:33.168Z,101893.94
2018-04-14T23:35:06.164Z,101890.70
2018-04-14T23:37:40.162Z,101890.27
2018-04-14T23:40:13.552Z,101885.45
2018-04-14T23:42:46.955Z,101885.08
2018-04-14T23:45:20.521Z,101884.80
2018-04-14T23:47:53.529Z,101884.37
2018-04-14T23:50:27.274Z,101880.16
2018-04-14T23:54:38.679Z,101879.62
2018-04-14T23:57:16.395Z,101882.30
2018-04-14T23:59:51.642Z,101878.60
